createdAt,value
2023-03-26T00:02:48.204Z,20.23
2023-03-26T00:06:48.299Z,20.27
2023-03-26T00:10:48.439Z,20.31
2023-03-26T00:14:48.566Z,20.31
2023-03-26T00:18:48.733Z,20.25
2023-03-26T00:22:48.924Z,20.25
2023-03-26T00:26:48.988Z,20.25
2023-03-26T00:30:49.206Z,20.34
2023-03-26T00:34:49.350Z,20.37
2023-03-26T02:18:50.062Z,20.70
2023-03-26T02:22:50.071Z,20.77
2023-03-26T02:26:50.006Z,21.02
2023-03-26T02:30:49.950Z,21.20
2023-03-26T02:34:49.924Z,21.35
2023-03-26T02:38:49.893Z,21.51
2023-03-26T02:42:49.893Z,21.62
2023-03-26T02:46:49.817Z,21.74
2023-03-26T02:50:49.788Z,21.83
2023-03-26T02:54:49.745Z,21.97
2023-03-26T02:58:49.729Z,22.04
2023-03-26T03:02:49.726Z,22.13
2023-03-26T03:06:49.647Z,22.18
2023-03-26T03:10:49.578Z,22.21
2023-03-26T03:14:49.594Z,22.27
2023-03-26T03:18:49.648Z,22.43
2023-03-26T03:22:49.698Z,22.43
2023-03-26T03:26:49.727Z,22.51
2023-03-26T03:30:49.817Z,22.54
2023-03-26T03:34:49.880Z,22.59
2023-03-26T03:38:49.955Z,22.65
2023-03-26T03:42:50.063Z,22.65
2023-03-26T03:46:50.166Z,22.75
2023-03-26T03:50:50.229Z,22.68
2023-03-26T03:54:50.321Z,22.79
2023-03-26T03:58:52.039Z,22.83
2023-03-26T04:02:50.591Z,22.89
2023-03-26T04:06:50.602Z,22.90
2023-03-26T04:10:50.695Z,23.01
2023-03-26T04:14:50.807Z,23.05
2023-03-26T04:18:50.943Z,23.06
2023-03-26T04:22:51.053Z,23.14
2023-03-26T04:26:51.202Z,23.12
2023-03-26T04:30:51.332Z,23.10
2023-03-26T04:34:51.457Z,23.20
2023-03-26T04:38:51.620Z,23.21
2023-03-26T04:42:51.722Z,23.23
2023-03-26T04:46:51.872Z,23.22
2023-03-26T04:50:52.005Z,23.25
2023-03-26T04:54:52.158Z,23.21
2023-03-26T04:58:52.351Z,23.02
2023-03-26T05:02:52.620Z,22.94
2023-03-26T05:06:52.704Z,22.83
2023-03-26T05:10:53.047Z,22.82
2023-03-26T05:14:53.017Z,23.02
2023-03-26T05:18:53.162Z,23.10
2023-03-26T05:22:53.351Z,23.16
2023-03-26T05:26:53.528Z,23.23
2023-03-26T05:30:54.098Z,23.32
2023-03-26T05:34:53.946Z,23.39
2023-03-26T05:38:54.143Z,23.42
2023-03-26T05:42:54.327Z,23.47
2023-03-26T05:46:54.558Z,23.51
2023-03-26T05:50:55.006Z,23.56
2023-03-26T05:54:54.974Z,23.56
2023-03-26T05:58:54.948Z,23.62
2023-03-26T06:02:56.865Z,23.60
2023-03-26T06:06:54.956Z,23.63
2023-03-26T06:10:55.064Z,23.66
2023-03-26T06:14:54.896Z,23.61
2023-03-26T06:18:56.557Z,23.64
2023-03-26T06:22:54.779Z,23.60
2023-03-26T06:26:54.772Z,23.58
2023-03-26T06:30:55.024Z,23.54
2023-03-26T06:34:54.697Z,23.56
2023-03-26T06:38:54.630Z,23.61
2023-03-26T06:43:09.477Z,23.58
2023-03-26T06:46:55.617Z,23.58
2023-03-26T06:50:54.733Z,23.54
2023-03-26T06:54:54.681Z,23.48
2023-03-26T06:58:54.624Z,23.49
2023-03-26T07:02:54.634Z,23.51
2023-03-26T07:06:54.556Z,23.51
2023-03-26T07:10:54.661Z,23.49
2023-03-26T07:14:54.488Z,23.46
2023-03-26T07:18:54.451Z,23.40
2023-03-26T07:22:54.442Z,23.44
2023-03-26T07:26:54.380Z,23.41
2023-03-26T07:30:54.472Z,23.38
2023-03-26T07:34:54.356Z,23.32
2023-03-26T07:38:54.542Z,23.24
2023-03-26T07:42:54.782Z,23.17
2023-03-26T07:46:54.997Z,23.11
2023-03-26T07:50:55.374Z,23.08
2023-03-26T07:54:55.410Z,22.97
2023-03-26T07:58:55.605Z,22.95
2023-03-26T08:02:55.860Z,22.87
2023-03-26T08:06:55.932Z,22.87
2023-03-26T08:10:56.280Z,22.80
2023-03-26T08:14:56.322Z,22.76
2023-03-26T08:18:56.496Z,22.76
2023-03-26T08:22:56.705Z,22.72
2023-03-26T08:26:56.832Z,22.64
2023-03-26T08:30:57.439Z,22.57
2023-03-26T08:34:57.261Z,22.49
2023-03-26T08:38:57.344Z,22.44
2023-03-26T08:42:57.473Z,22.41
2023-03-26T08:46:57.642Z,22.38
2023-03-26T08:50:58.020Z,22.33
2023-03-26T08:54:57.918Z,22.35
2023-03-26T08:58:59.647Z,22.27
2023-03-26T09:02:58.286Z,22.30
2023-03-26T09:06:58.349Z,22.26
2023-03-26T09:10:58.486Z,22.29
2023-03-26T09:14:58.638Z,22.32
2023-03-26T09:18:58.727Z,22.27
2023-03-26T09:22:58.904Z,22.37
2023-03-26T09:26:59.028Z,22.38
2023-03-26T09:30:59.159Z,22.43
2023-03-26T09:34:59.257Z,22.46
2023-03-26T09:38:59.373Z,22.50
2023-03-26T09:42:59.515Z,22.49
2023-03-26T09:46:59.635Z,22.47
2023-03-26T09:50:59.719Z,22.53
2023-03-26T09:54:59.838Z,22.54
2023-03-26T09:58:59.964Z,22.55
2023-03-26T10:03:00.036Z,22.50
2023-03-26T10:07:00.131Z,22.45
2023-03-26T10:11:00.244Z,22.41
2023-03-26T10:15:00.300Z,22.46
2023-03-26T10:19:00.408Z,22.41
2023-03-26T10:23:00.455Z,22.36
2023-03-26T10:27:09.159Z,22.33
2023-03-26T10:31:01.546Z,22.38
2023-03-26T10:35:00.432Z,22.40
2023-03-26T10:39:00.436Z,22.44
2023-03-26T10:43:00.351Z,22.43
2023-03-26T10:47:00.338Z,22.43
2023-03-26T10:51:00.344Z,22.43
2023-03-26T10:55:00.432Z,22.51
2023-03-26T10:59:00.505Z,22.47
2023-03-26T11:03:00.579Z,22.52
2023-03-26T11:07:00.673Z,22.51
2023-03-26T11:11:00.745Z,22.52
2023-03-26T11:15:00.812Z,22.54
2023-03-26T11:19:00.881Z,22.48
2023-03-26T11:23:00.906Z,22.56
2023-03-26T11:27:14.623Z,22.54
2023-03-26T11:31:01.958Z,22.54
2023-03-26T11:35:00.894Z,22.49
2023-03-26T11:39:00.861Z,22.48
2023-03-26T11:43:00.800Z,22.47
2023-03-26T11:47:00.802Z,22.45
2023-03-26T11:51:00.747Z,22.42
2023-03-26T11:55:00.744Z,22.41
2023-03-26T11:59:00.661Z,22.42
2023-03-26T12:03:00.661Z,22.45
2023-03-26T12:07:00.602Z,22.39
2023-03-26T12:11:00.578Z,22.41
2023-03-26T12:15:00.525Z,22.33
2023-03-26T12:19:00.515Z,22.37
2023-03-26T12:23:00.540Z,22.41
2023-03-26T12:27:00.537Z,22.44
2023-03-26T12:31:00.522Z,22.48
2023-03-26T12:35:00.496Z,22.50
2023-03-26T12:39:17.188Z,22.52
2023-03-26T12:44:55.789Z,22.44
2023-03-26T12:47:57.902Z,22.47
2023-03-26T12:51:01.401Z,22.50
2023-03-26T12:55:00.389Z,22.52
2023-03-26T12:59:00.328Z,22.50
2023-03-26T13:03:00.368Z,22.55
2023-03-26T13:07:02.328Z,22.57
2023-03-26T13:11:00.207Z,22.66
2023-03-26T13:15:00.175Z,22.84
2023-03-26T13:19:00.157Z,23.01
2023-03-26T13:23:00.134Z,23.25
2023-03-26T13:27:00.279Z,23.38
2023-03-26T13:31:00.443Z,23.58
2023-03-26T13:35:00.500Z,24.04
2023-03-26T13:39:00.794Z,24.34
2023-03-26T13:43:00.464Z,24.44
2023-03-26T13:47:00.459Z,24.82
2023-03-26T13:51:00.477Z,25.01
2023-03-26T13:55:00.478Z,25.23
2023-03-26T13:59:00.474Z,25.37
2023-03-26T14:03:00.550Z,25.58
2023-03-26T14:07:00.487Z,25.95
2023-03-26T14:11:00.475Z,26.14
2023-03-26T14:15:00.507Z,26.28
2023-03-26T14:19:00.511Z,26.30
2023-03-26T14:23:00.529Z,26.41
2023-03-26T14:27:00.570Z,26.57
2023-03-26T14:31:00.621Z,26.79
2023-03-26T14:35:00.615Z,27.11
2023-03-26T14:39:00.615Z,27.48
2023-03-26T14:43:00.671Z,27.67
2023-03-26T14:47:00.734Z,27.85
2023-03-26T14:51:00.742Z,28.00
2023-03-26T14:55:00.788Z,28.14
2023-03-26T14:59:00.788Z,28.29
2023-03-26T15:03:00.850Z,28.40
2023-03-26T15:07:00.919Z,28.54
2023-03-26T15:11:01.015Z,28.58
2023-03-26T15:15:01.058Z,28.70
2023-03-26T15:19:01.116Z,28.73
2023-03-26T15:23:01.193Z,28.91
2023-03-26T15:27:01.391Z,28.93
2023-03-26T15:31:01.382Z,28.96
2023-03-26T15:35:01.503Z,28.89
2023-03-26T15:39:01.517Z,29.02
2023-03-26T15:43:01.717Z,28.96
2023-03-26T15:47:01.702Z,28.98
2023-03-26T15:51:01.777Z,29.01
2023-03-26T15:55:01.930Z,29.11
2023-03-26T15:59:02.004Z,29.21
2023-03-26T16:03:02.101Z,29.32
2023-03-26T16:07:02.169Z,29.42
2023-03-26T16:11:02.283Z,29.45
2023-03-26T16:15:02.408Z,29.66
2023-03-26T16:19:02.478Z,29.85
2023-03-26T16:23:02.673Z,30.02
2023-03-26T16:27:02.703Z,30.16
2023-03-26T16:31:02.876Z,30.16
2023-03-26T16:35:03.840Z,30.16
2023-03-26T16:39:02.790Z,30.18
2023-03-26T16:43:02.763Z,30.18
2023-03-26T16:47:02.723Z,30.26
2023-03-26T16:51:02.835Z,30.29
2023-03-26T16:55:02.996Z,30.34
2023-03-26T16:59:03.145Z,30.31
2023-03-26T17:03:03.333Z,30.34
2023-03-26T17:07:03.409Z,30.40
2023-03-26T17:11:03.546Z,30.44
2023-03-26T17:15:03.689Z,30.47
2023-03-26T17:19:03.792Z,30.44
2023-03-26T17:23:03.886Z,30.44
2023-03-26T17:27:03.992Z,30.44
2023-03-26T17:31:04.204Z,30.48
2023-03-26T17:35:04.262Z,30.51
2023-03-26T17:39:04.393Z,30.61
2023-03-26T17:43:04.723Z,30.63
2023-03-26T17:47:04.724Z,30.72
2023-03-26T17:51:04.857Z,30.80
2023-03-26T17:55:04.995Z,30.86
2023-03-26T17:59:11.526Z,30.88
2023-03-26T18:03:06.226Z,30.86
2023-03-26T18:07:05.115Z,30.88
2023-03-26T18:11:05.063Z,30.86
2023-03-26T18:15:05.218Z,30.86
2023-03-26T18:19:05.398Z,30.90
2023-03-26T18:23:05.589Z,30.95
2023-03-26T18:27:05.759Z,31.05
2023-03-26T18:31:05.969Z,31.18
2023-03-26T18:35:06.156Z,31.21
2023-03-26T18:39:06.380Z,31.27
2023-03-26T18:43:06.615Z,31.29
2023-03-26T18:47:06.822Z,31.39
2023-03-26T18:51:07.034Z,31.46
2023-03-26T18:55:07.209Z,31.36
2023-03-26T18:59:07.459Z,31.37
2023-03-26T19:03:07.797Z,31.36
2023-03-26T19:07:07.906Z,31.37
2023-03-26T19:11:07.871Z,31.35
2023-03-26T19:15:07.867Z,31.43
2023-03-26T19:19:07.952Z,31.43
2023-03-26T19:23:07.762Z,31.43
2023-03-26T19:27:07.729Z,31.52
2023-03-26T19:31:07.721Z,31.48
2023-03-26T19:35:07.684Z,31.49
2023-03-26T19:39:07.628Z,31.38
2023-03-26T19:43:07.604Z,31.32
2023-03-26T19:47:07.737Z,31.18
2023-03-26T19:51:07.610Z,31.12
2023-03-26T19:55:07.590Z,31.23
2023-03-26T19:59:07.512Z,31.21
2023-03-26T20:03:07.546Z,31.24
2023-03-26T20:07:07.476Z,31.27
2023-03-26T20:11:07.427Z,31.28
2023-03-26T20:15:07.421Z,31.33
2023-03-26T20:19:08.383Z,31.38
2023-03-26T20:23:07.330Z,31.40
2023-03-26T20:27:07.436Z,31.45
2023-03-26T20:31:07.660Z,31.48
2023-03-26T20:35:08.225Z,31.46
2023-03-26T20:39:08.295Z,31.47
2023-03-26T20:43:08.049Z,31.47
2023-03-26T20:47:08.124Z,31.37
2023-03-26T20:51:08.082Z,31.32
2023-03-26T20:55:08.108Z,31.22
2023-03-26T20:59:11.402Z,31.25
2023-03-26T21:03:08.114Z,31.21
2023-03-26T21:07:17.726Z,31.29
2023-03-26T21:11:08.954Z,31.35
2023-03-26T21:15:13.597Z,31.41
2023-03-26T21:19:08.854Z,31.36
2023-03-26T21:23:07.821Z,31.38
2023-03-26T21:27:07.779Z,31.38
2023-03-26T21:31:07.754Z,31.36
2023-03-26T21:35:07.774Z,31.34
2023-03-26T21:39:07.724Z,31.36
2023-03-26T21:43:07.719Z,31.33
2023-03-26T21:47:09.531Z,31.31
2023-03-26T21:51:07.796Z,31.25
2023-03-26T21:55:07.869Z,31.27
2023-03-26T21:59:07.877Z,31.28
2023-03-26T22:03:07.971Z,31.37
2023-03-26T22:07:07.988Z,31.29
2023-03-26T22:11:07.977Z,31.27
2023-03-26T22:15:08.010Z,31.28
2023-03-26T22:19:08.012Z,31.29
2023-03-26T22:23:08.078Z,31.31
2023-03-26T22:27:08.141Z,31.34
2023-03-26T22:31:08.331Z,31.25
2023-03-26T22:35:08.315Z,31.28
2023-03-26T22:39:08.332Z,31.26
2023-03-26T22:43:08.414Z,31.22
2023-03-26T22:47:08.501Z,31.14
2023-03-26T22:51:08.628Z,31.05
2023-03-26T22:55:08.683Z,30.99
2023-03-26T22:59:08.768Z,30.91
2023-03-26T23:03:08.922Z,30.69
2023-03-26T23:07:08.968Z,30.72
2023-03-26T23:11:09.037Z,30.69
2023-03-26T23:15:09.093Z,30.64
2023-03-26T23:19:09.212Z,30.60
2023-03-26T23:23:09.326Z,30.52
2023-03-26T23:27:09.432Z,30.52
2023-03-26T23:31:09.614Z,30.52
2023-03-26T23:35:09.690Z,30.55
2023-03-26T23:39:09.794Z,30.57
2023-03-26T23:43:09.900Z,30.51
2023-03-26T23:47:09.997Z,30.55
2023-03-26T23:51:10.136Z,30.56
2023-03-26T23:55:10.280Z,30.60
2023-03-26T23:59:10.464Z,30.67
